CheckWX is a tool to help pilots better visualize weather data.  It is not intended as a substitute for an official pre-flight weather briefing.

02:29:03 UTC

KDYL METAR
Doylestown Airport
Doylestown, Pennsylvania, USA
Current

35 mins ago

KDYL 150154Z AUTO 00000KT 10SM CLR 23/17 A3006 RMK AO2 SLP172 T02280172
Observed
Jul-15 @ 01:54 UTC
Visibility
10 SM
Flight Rules
VFR
Cloud Levels
  • Clear skies
Temperature
23°C / 73°F
Dewpoint
17°C / 63°F
Humidity
69%
Altimeter
30.06" Hg
Pressure
1017.92 hPa
Previous

2 hours ago

KDYL 150054Z AUTO 00000KT 10SM CLR 23/18 A3004 RMK AO2 SLP165 T02330178
Observed
Jul-15 @ 00:54 UTC
Visibility
10 SM
Flight Rules
VFR
Cloud Levels
  • Clear skies
Temperature
23°C / 73°F
Dewpoint
18°C / 64°F
Humidity
74%
Altimeter
30.04" Hg
Pressure
1017.32 hPa
Previous

3 hours ago

KDYL 142354Z AUTO 00000KT 10SM FEW100 26/17 A3003 RMK AO2 SLP162 T02610172 10317 20250 51016
Observed
Jul-14 @ 23:54 UTC
Visibility
10 SM
Flight Rules
VFR
Cloud Levels
  • Few at 10,000' AGL
Temperature
26°C / 79°F
Dewpoint
17°C / 63°F
Humidity
58%
Altimeter
30.03" Hg
Pressure
1016.92 hPa